Time;durP1;ratioP1;P1;durP2;ratioP2;P2;SDS_P1;SDS_P2;PMS_P1;PMS_P2;Temp;Humidity;BMP_temperature;BMP_pressure;BME280_temperature;BME280_humidity;BME280_pressure;Samples;Min_cycle;Max_cycle;Signal;HPM_P1;HPM_P2
2020/12/01 00:01:31;;;;;;;37.83;18.25;;;2.90;99.90;;;;;;4950402;28;20521;-58
2020/12/01 00:03:57;;;;;;;37.90;18.73;;;2.90;99.90;;;;;;5039320;28;20029;-56
2020/12/01 00:06:23;;;;;;;37.15;17.42;;;2.90;99.90;;;;;;5034893;28;20036;-58
2020/12/01 00:08:48;;;;;;;38.58;18.70;;;2.90;99.90;;;;;;5038996;28;20029;-55
2020/12/01 00:11:15;;;;;;;42.42;18.58;;;2.90;99.90;;;;;;5037624;28;20029;-58
2020/12/01 00:13:41;;;;;;;33.17;18.30;;;2.90;99.90;;;;;;5034012;28;20029;-58
2020/12/01 00:16:10;;;;;;;34.58;16.30;;;2.90;99.90;;;;;;5036444;28;20044;-56
2020/12/01 00:18:36;;;;;;;36.15;16.60;;;2.90;99.90;;;;;;5033279;28;20037;-56
2020/12/01 00:21:01;;;;;;;37.45;18.35;;;2.90;99.90;;;;;;5041327;28;20029;-58
2020/12/01 00:23:28;;;;;;;31.23;16.33;;;2.80;99.90;;;;;;5043848;28;20593;-54
2020/12/01 00:25:53;;;;;;;33.88;16.77;;;2.90;99.90;;;;;;5036913;28;20054;-56
2020/12/01 00:28:19;;;;;;;36.47;17.90;;;2.90;99.90;;;;;;5034780;28;20065;-58
2020/12/01 00:30:45;;;;;;;31.05;16.08;;;2.80;99.90;;;;;;5035557;28;20655;-58
2020/12/01 00:33:11;;;;;;;29.02;15.02;;;2.80;99.90;;;;;;5034284;28;20036;-58
2020/12/01 00:35:37;;;;;;;28.60;15.75;;;2.80;99.90;;;;;;5036430;28;20021;-57
2020/12/01 00:38:03;;;;;;;32.90;16.13;;;2.80;99.90;;;;;;5029847;28;20022;-57
2020/12/01 00:40:29;;;;;;;29.10;14.38;;;2.80;99.90;;;;;;5037698;28;20033;-53
2020/12/01 00:42:54;;;;;;;30.45;15.18;;;2.80;99.90;;;;;;5029469;28;20474;-57
2020/12/01 00:45:20;;;;;;;30.17;15.50;;;2.80;99.90;;;;;;5033603;28;20017;-56
2020/12/01 00:47:45;;;;;;;32.72;15.73;;;2.80;99.90;;;;;;5035299;28;20022;-57
2020/12/01 00:50:20;;;;;;;33.35;15.40;;;2.80;99.90;;;;;;5052955;28;20045;-56
2020/12/01 00:52:45;;;;;;;34.03;14.82;;;2.80;99.90;;;;;;5034869;28;20022;-57
2020/12/01 00:55:12;;;;;;;32.42;15.95;;;2.80;99.90;;;;;;5037218;28;20030;-57
2020/12/01 00:57:37;;;;;;;28.17;15.38;;;2.80;99.90;;;;;;5039859;28;20764;-57
2020/12/01 01:00:15;;;;;;;29.52;14.70;;;2.80;99.90;;;;;;5022814;28;20025;-54
2020/12/01 01:02:41;;;;;;;30.77;15.07;;;2.80;99.90;;;;;;5034923;28;20029;-56
2020/12/01 01:05:07;;;;;;;27.90;14.88;;;2.80;99.90;;;;;;5042584;28;20452;-57
2020/12/01 01:07:32;;;;;;;28.05;14.23;;;2.70;99.90;;;;;;5041555;28;20022;-57
2020/12/01 01:09:58;;;;;;;33.17;15.18;;;2.80;99.90;;;;;;5040733;28;20037;-59
2020/12/01 01:12:23;;;;;;;27.38;13.80;;;2.80;99.90;;;;;;5034649;28;20095;-57
2020/12/01 01:14:49;;;;;;;27.85;14.27;;;2.70;99.90;;;;;;5037184;28;20486;-60
2020/12/01 01:17:14;;;;;;;32.22;14.80;;;2.70;99.90;;;;;;5039433;28;20021;-58
2020/12/01 01:19:40;;;;;;;28.17;13.70;;;2.80;99.90;;;;;;5050730;28;20291;-58
2020/12/01 01:22:05;;;;;;;31.67;13.68;;;2.80;99.90;;;;;;5017921;28;20038;-58
2020/12/01 01:24:31;;;;;;;29.70;14.60;;;2.80;99.90;;;;;;5039863;28;20028;-57
2020/12/01 01:26:57;;;;;;;28.13;14.40;;;2.80;99.90;;;;;;5048464;28;20104;-59
2020/12/01 01:29:23;;;;;;;26.23;13.10;;;2.80;99.90;;;;;;5040635;28;20025;-58
2020/12/01 01:31:54;;;;;;;24.08;13.23;;;2.80;99.90;;;;;;5044649;28;20123;-59
2020/12/01 01:34:19;;;;;;;29.10;14.90;;;2.80;99.90;;;;;;5039411;28;20482;-55
2020/12/01 01:36:45;;;;;;;25.15;13.80;;;2.80;99.90;;;;;;5039721;28;20021;-56
2020/12/01 01:39:11;;;;;;;26.27;13.90;;;2.80;99.90;;;;;;5042274;28;20025;-56
2020/12/01 01:41:38;;;;;;;26.98;13.25;;;2.80;99.90;;;;;;5035078;28;20044;-58
2020/12/01 01:44:16;;;;;;;30.52;14.77;;;2.80;99.90;;;;;;5039625;28;20313;-58
2020/12/01 01:46:44;;;;;;;28.75;14.23;;;2.80;99.90;;;;;;5042068;28;20229;-58
2020/12/01 01:49:16;;;;;;;27.35;14.57;;;2.90;99.90;;;;;;5034111;28;20152;-56
2020/12/01 01:51:48;;;;;;;30.38;15.02;;;2.90;99.90;;;;;;5042160;28;20025;-58
2020/12/01 01:54:16;;;;;;;29.20;13.80;;;2.90;99.90;;;;;;5031905;28;20029;-58
2020/12/01 01:56:45;;;;;;;29.02;15.30;;;2.90;99.90;;;;;;5034628;28;20047;-58
2020/12/01 01:59:12;;;;;;;28.42;13.15;;;2.90;99.90;;;;;;5044346;28;20044;-58
2020/12/01 02:01:38;;;;;;;27.23;13.35;;;2.90;99.90;;;;;;5041458;28;20103;-57
2020/12/01 02:04:07;;;;;;;25.80;13.82;;;2.90;99.90;;;;;;5036741;28;20384;-57
2020/12/01 02:06:36;;;;;;;29.33;13.68;;;2.90;99.90;;;;;;5039267;28;20029;-57
2020/12/01 02:09:10;;;;;;;26.20;14.13;;;2.90;99.90;;;;;;5036450;28;20108;-56
2020/12/01 02:11:40;;;;;;;28.27;13.63;;;2.90;99.90;;;;;;5045656;28;20045;-56
2020/12/01 02:14:15;;;;;;;29.10;14.25;;;2.90;99.90;;;;;;5039819;28;20057;-55
2020/12/01 02:16:45;;;;;;;22.55;12.60;;;2.90;99.90;;;;;;5037519;28;20057;-58
2020/12/01 02:19:16;;;;;;;26.80;13.95;;;2.90;99.90;;;;;;5035435;28;20048;-57
2020/12/01 02:21:43;;;;;;;25.20;14.00;;;2.90;99.90;;;;;;5018462;28;20077;-56
2020/12/01 02:24:12;;;;;;;26.77;14.65;;;3.00;99.90;;;;;;5033884;28;20091;-55
2020/12/01 02:26:38;;;;;;;24.98;13.70;;;3.00;99.90;;;;;;5038053;28;20051;-58
2020/12/01 02:29:09;;;;;;;25.42;14.18;;;3.00;99.90;;;;;;5038476;28;20445;-58
2020/12/01 02:31:35;;;;;;;26.58;13.57;;;2.90;99.90;;;;;;5039512;28;20455;-58
2020/12/01 02:34:08;;;;;;;31.13;14.70;;;2.90;99.90;;;;;;5049973;28;20064;-55
2020/12/01 02:36:34;;;;;;;23.30;14.18;;;2.90;99.90;;;;;;5041487;28;20047;-60
2020/12/01 02:39:00;;;;;;;25.17;14.43;;;2.90;99.90;;;;;;5036333;28;20060;-59
2020/12/01 02:41:26;;;;;;;23.60;13.45;;;3.00;99.90;;;;;;5036894;28;20080;-60
2020/12/01 02:43:51;;;;;;;27.58;14.65;;;3.00;99.90;;;;;;5035624;28;20285;-54
2020/12/01 02:46:17;;;;;;;25.35;14.20;;;3.00;99.90;;;;;;5044498;28;20032;-58
2020/12/01 02:48:43;;;;;;;26.92;13.80;;;3.00;99.90;;;;;;5032467;28;20751;-58
2020/12/01 02:51:08;;;;;;;23.50;13.43;;;3.00;99.90;;;;;;5042159;28;20033;-56
2020/12/01 02:53:34;;;;;;;24.30;13.60;;;3.00;99.90;;;;;;5027871;28;20025;-59
2020/12/01 02:55:59;;;;;;;28.63;14.32;;;3.00;99.90;;;;;;5036331;28;20101;-60
2020/12/01 02:58:25;;;;;;;23.67;13.25;;;3.00;99.90;;;;;;5036886;28;20029;-59
2020/12/01 03:00:50;;;;;;;25.40;14.73;;;3.00;99.90;;;;;;5041330;28;20037;-58
2020/12/01 03:03:16;;;;;;;24.90;12.95;;;3.10;99.90;;;;;;5037632;28;20108;-57
2020/12/01 03:05:41;;;;;;;24.98;13.23;;;3.10;99.90;;;;;;5042497;28;20475;-58
2020/12/01 03:08:07;;;;;;;24.85;13.20;;;3.10;99.90;;;;;;5036096;28;20047;-58
2020/12/01 03:10:32;;;;;;;27.08;14.40;;;3.10;99.90;;;;;;5042415;28;20063;-57
2020/12/01 03:12:58;;;;;;;26.17;14.30;;;3.10;99.90;;;;;;5033005;28;20093;-58
2020/12/01 03:15:24;;;;;;;24.20;14.23;;;3.10;99.90;;;;;;5039624;28;20013;-56
2020/12/01 03:17:49;;;;;;;23.95;13.05;;;3.10;99.90;;;;;;5036928;28;20025;-56
2020/12/01 03:20:15;;;;;;;24.92;13.98;;;3.10;99.90;;;;;;5036151;28;20025;-56
2020/12/01 03:22:41;;;;;;;26.30;13.95;;;3.10;99.90;;;;;;5013000;28;20038;-57
2020/12/01 03:25:06;;;;;;;26.92;13.60;;;3.10;99.90;;;;;;5039503;28;20033;-58
2020/12/01 03:27:32;;;;;;;25.30;13.82;;;3.00;99.90;;;;;;5027785;28;20022;-56
2020/12/01 03:29:57;;;;;;;29.45;14.05;;;3.00;99.90;;;;;;5042971;28;20036;-59
2020/12/01 03:32:24;;;;;;;23.65;13.65;;;3.10;99.90;;;;;;5037374;28;20079;-56
2020/12/01 03:34:51;;;;;;;28.33;13.95;;;3.10;99.90;;;;;;5039334;28;20067;-59
2020/12/01 03:37:16;;;;;;;24.48;13.32;;;3.10;99.90;;;;;;5037949;28;20478;-58
2020/12/01 03:39:42;;;;;;;29.80;13.60;;;3.10;99.90;;;;;;5038416;28;20074;-58
2020/12/01 03:42:08;;;;;;;24.45;13.18;;;3.10;99.90;;;;;;5038352;28;20028;-57
2020/12/01 03:44:33;;;;;;;24.80;13.75;;;3.10;99.90;;;;;;5039392;28;20046;-57
2020/12/01 03:46:59;;;;;;;26.45;13.27;;;3.10;99.90;;;;;;5040146;28;20690;-57
2020/12/01 03:49:25;;;;;;;22.17;12.93;;;3.10;99.90;;;;;;5036408;28;20041;-59
2020/12/01 03:51:50;;;;;;;21.42;12.52;;;3.10;99.90;;;;;;5043446;28;20475;-57
2020/12/01 03:54:16;;;;;;;25.73;13.60;;;3.10;99.90;;;;;;5034018;28;20034;-56
2020/12/01 03:56:42;;;;;;;22.92;12.05;;;3.10;99.90;;;;;;5037687;28;20025;-56
2020/12/01 03:59:07;;;;;;;23.48;12.63;;;3.10;99.90;;;;;;5030898;28;20032;-58
2020/12/01 04:01:33;;;;;;;24.92;13.73;;;3.10;99.90;;;;;;5037542;28;20021;-54
2020/12/01 04:03:58;;;;;;;26.48;12.90;;;3.10;99.90;;;;;;5033246;28;20675;-56
2020/12/01 04:06:24;;;;;;;24.83;13.90;;;3.10;99.90;;;;;;5037338;28;20459;-58
2020/12/01 04:08:50;;;;;;;24.10;13.20;;;3.10;99.90;;;;;;5033995;28;20029;-58
2020/12/01 04:11:16;;;;;;;22.83;13.25;;;3.10;99.90;;;;;;5034615;28;20041;-57
2020/12/01 04:13:42;;;;;;;22.92;12.85;;;3.10;99.90;;;;;;5035263;28;20032;-57
2020/12/01 04:16:07;;;;;;;24.45;13.38;;;3.10;99.90;;;;;;5038760;28;20025;-57
2020/12/01 04:18:33;;;;;;;24.77;12.85;;;3.10;99.90;;;;;;5035489;28;20538;-56
2020/12/01 04:20:58;;;;;;;18.30;11.48;;;3.20;99.90;;;;;;5038849;28;20024;-57
2020/12/01 04:23:24;;;;;;;24.80;12.55;;;3.20;99.90;;;;;;5008151;28;20046;-57
2020/12/01 04:25:50;;;;;;;20.02;11.75;;;3.20;99.90;;;;;;5041558;28;20029;-59
2020/12/01 04:28:15;;;;;;;21.67;11.60;;;3.20;99.90;;;;;;5026617;28;20101;-57
2020/12/01 04:30:41;;;;;;;22.00;13.23;;;3.20;99.90;;;;;;5035999;28;20505;-56
2020/12/01 04:33:06;;;;;;;21.17;11.82;;;3.20;99.90;;;;;;5040583;28;20047;-57
2020/12/01 04:35:32;;;;;;;24.42;12.48;;;3.20;99.90;;;;;;5045585;28;20058;-57
2020/12/01 04:38:01;;;;;;;30.75;13.15;;;3.20;99.90;;;;;;5040782;28;20056;-58
2020/12/01 04:40:31;;;;;;;21.95;13.57;;;3.20;99.90;;;;;;5045526;28;20060;-56
2020/12/01 04:43:02;;;;;;;24.83;13.00;;;3.20;99.90;;;;;;5038168;28;20024;-57
2020/12/01 04:45:29;;;;;;;24.60;13.70;;;3.20;99.90;;;;;;5039275;28;20060;-57
2020/12/01 04:48:11;;;;;;;22.38;12.75;;;3.20;99.90;;;;;;5038985;28;20078;-57
2020/12/01 04:50:43;;;;;;;25.20;13.18;;;3.30;99.90;;;;;;5044724;28;20043;-57
2020/12/01 04:53:37;;;;;;;24.60;12.75;;;3.30;99.90;;;;;;5045897;28;20026;-57
2020/12/01 04:56:05;;;;;;;24.42;13.68;;;3.30;99.90;;;;;;5045183;28;20024;-58
2020/12/01 04:58:43;;;;;;;20.80;12.60;;;3.30;99.90;;;;;;5041694;28;20029;-56
2020/12/01 05:01:12;;;;;;;26.02;13.68;;;3.30;99.90;;;;;;5040893;28;20079;-56
2020/12/01 05:03:55;;;;;;;21.63;12.70;;;3.30;99.90;;;;;;5043979;28;20024;-56
2020/12/01 05:09:19;;;;;;;22.20;12.40;;;3.30;99.90;;;;;;5038386;28;20032;-56
2020/12/01 05:11:58;;;;;;;22.90;12.95;;;3.30;99.90;;;;;;5039539;28;20059;-58
2020/12/01 05:14:37;;;;;;;19.92;12.27;;;3.40;99.90;;;;;;5041042;28;20052;-58
2020/12/01 05:17:14;;;;;;;25.15;12.35;;;3.40;99.90;;;;;;5039089;28;20495;-56
2020/12/01 05:19:44;;;;;;;24.52;12.95;;;3.40;99.90;;;;;;5040440;28;20052;-58
2020/12/01 05:22:13;;;;;;;24.50;13.38;;;3.40;99.90;;;;;;5011949;28;20089;-59
2020/12/01 05:24:41;;;;;;;27.30;13.57;;;3.40;99.90;;;;;;5040762;28;20098;-58
2020/12/01 05:27:29;;;;;;;27.45;12.82;;;3.40;99.90;;;;;;5037501;28;20628;-57
2020/12/01 05:29:59;;;;;;;28.85;13.05;;;3.40;99.90;;;;;;5042893;28;20057;-58
2020/12/01 05:32:36;;;;;;;22.63;13.43;;;3.40;99.90;;;;;;5039817;28;20063;-59
2020/12/01 05:35:10;;;;;;;29.52;13.80;;;3.40;99.90;;;;;;5037409;28;20029;-58
2020/12/01 05:37:35;;;;;;;;;;;3.40;99.90;;;;;;5045464;28;20051;-60
2020/12/01 05:40:06;;;;;;;23.23;13.40;;;3.30;99.90;;;;;;5036651;28;20453;-57
2020/12/01 05:42:41;;;;;;;24.80;13.88;;;3.30;99.90;;;;;;5038781;28;20029;-56
2020/12/01 05:45:15;;;;;;;25.23;12.80;;;3.40;99.90;;;;;;5043829;28;20044;-58
2020/12/01 05:47:45;;;;;;;28.27;14.68;;;3.30;99.90;;;;;;5044769;28;20045;-58
2020/12/01 05:50:20;;;;;;;21.23;13.65;;;3.40;99.90;;;;;;5040913;28;20053;-56
2020/12/01 05:52:53;;;;;;;27.38;15.00;;;3.30;99.90;;;;;;5039222;28;20506;-56
2020/12/01 05:55:27;;;;;;;27.83;15.23;;;3.40;99.90;;;;;;5044064;28;20414;-57
2020/12/01 05:58:02;;;;;;;;;;;3.40;99.90;;;;;;5037690;28;20017;-57
2020/12/01 06:00:32;;;;;;;27.58;14.82;;;3.40;99.90;;;;;;5041871;28;19931;-58
2020/12/01 06:03:20;;;;;;;25.92;13.63;;;3.40;99.90;;;;;;5039580;28;20437;-56
2020/12/01 06:05:49;;;;;;;28.52;14.82;;;3.40;99.90;;;;;;5035482;28;20033;-57
2020/12/01 06:08:44;;;;;;;27.23;14.00;;;3.40;99.90;;;;;;5040819;28;20115;-59
2020/12/01 06:11:21;;;;;;;28.25;15.43;;;3.40;99.90;;;;;;5038553;28;20028;-58
2020/12/01 06:13:48;;;;;;;23.08;14.55;;;3.40;99.90;;;;;;5043920;28;20024;-59
2020/12/01 06:16:57;;;;;;;29.58;16.20;;;3.40;99.90;;;;;;5040065;28;20057;-60
2020/12/01 06:19:26;;;;;;;27.58;15.48;;;3.40;99.90;;;;;;4999596;28;20018;-58
2020/12/01 06:22:01;;;;;;;27.80;15.07;;;3.40;99.90;;;;;;5005585;28;20034;-58
2020/12/01 06:24:38;;;;;;;28.35;15.48;;;3.40;99.90;;;;;;5040367;28;20021;-57
2020/12/01 06:27:31;;;;;;;30.90;15.40;;;3.40;99.90;;;;;;5038104;28;20048;-59
2020/12/01 06:30:03;;;;;;;27.33;14.45;;;3.40;99.90;;;;;;5046313;28;20021;-57
2020/12/01 06:32:38;;;;;;;26.63;15.38;;;3.40;99.90;;;;;;5038551;28;20552;-60
2020/12/01 06:35:30;;;;;;;28.17;15.07;;;3.40;99.90;;;;;;5039030;28;20078;-58
2020/12/01 06:38:27;;;;;;;29.13;15.93;;;3.40;99.90;;;;;;5040831;28;20112;-58
2020/12/01 06:41:01;;;;;;;28.08;15.00;;;3.40;99.90;;;;;;5049850;28;20025;-58
2020/12/01 06:43:49;;;;;;;26.80;15.95;;;3.40;99.90;;;;;;5036112;28;20032;-58
2020/12/01 06:46:44;;;;;;;27.48;16.13;;;3.40;99.90;;;;;;5041703;28;20036;-59
2020/12/01 06:49:14;;;;;;;32.20;16.02;;;3.40;99.90;;;;;;5008896;28;20449;-57
2020/12/01 06:51:40;;;;;;;30.23;15.73;;;3.40;99.90;;;;;;5039494;28;20067;-57
2020/12/01 06:54:12;;;;;;;25.70;14.45;;;3.40;99.90;;;;;;5038792;28;20060;-56
2020/12/01 06:56:37;;;;;;;32.22;15.68;;;3.50;99.90;;;;;;5013211;28;20470;-59
2020/12/01 06:59:13;;;;;;;31.55;16.48;;;3.40;99.90;;;;;;5041180;28;20087;-58
2020/12/01 07:01:40;;;;;;;32.97;17.35;;;3.40;99.90;;;;;;5039495;28;20379;-58
2020/12/01 07:04:08;;;;;;;31.95;16.63;;;3.40;99.90;;;;;;5021726;28;20504;-57
2020/12/01 07:06:46;;;;;;;32.95;16.23;;;3.40;99.90;;;;;;5017774;28;20036;-54
2020/12/01 07:09:24;;;;;;;26.38;15.35;;;3.40;99.90;;;;;;5018196;28;20044;-56
2020/12/01 07:12:07;;;;;;;35.97;18.52;;;3.50;99.90;;;;;;5017559;28;20029;-59
2020/12/01 07:14:36;;;;;;;27.98;15.82;;;3.50;99.90;;;;;;5026044;28;20018;-58
2020/12/01 07:17:21;;;;;;;45.17;15.93;;;3.50;99.90;;;;;;5014250;28;20083;-57
2020/12/01 07:20:13;;;;;;;30.80;15.90;;;3.50;99.90;;;;;;5021354;28;20026;-58
2020/12/01 07:22:39;;;;;;;35.30;17.33;;;3.50;99.90;;;;;;4997417;28;20033;-59
2020/12/01 07:25:36;;;;;;;32.80;16.85;;;3.50;99.90;;;;;;5024992;28;20552;-58
2020/12/01 07:28:05;;;;;;;35.35;15.75;;;3.50;99.90;;;;;;5034687;28;20013;-57
2020/12/01 07:31:02;;;;;;;37.03;16.75;;;3.50;99.90;;;;;;5025077;28;20021;-57
2020/12/01 07:33:35;;;;;;;29.55;16.27;;;3.60;99.90;;;;;;5007377;28;20040;-57
2020/12/01 07:36:24;;;;;;;33.85;17.67;;;3.60;99.90;;;;;;5019419;28;20773;-59
2020/12/01 07:38:49;;;;;;;43.58;18.15;;;3.60;99.90;;;;;;5023360;28;20045;-58
2020/12/01 07:41:24;;;;;;;38.45;18.42;;;3.60;99.90;;;;;;5014674;28;20029;-57
2020/12/01 07:44:06;;;;;;;31.90;16.52;;;3.60;99.90;;;;;;5013153;28;20033;-58
2020/12/01 07:49:17;;;;;;;33.42;16.90;;;3.60;99.90;;;;;;5018949;28;20549;-57
2020/12/01 07:51:42;;;;;;;34.95;17.60;;;3.60;99.90;;;;;;5025705;28;20055;-58
2020/12/01 07:54:08;;;;;;;38.22;18.90;;;3.60;99.90;;;;;;5019569;28;20064;-58
2020/12/01 07:56:38;;;;;;;37.15;18.40;;;3.60;99.90;;;;;;5012038;28;20073;-60
2020/12/01 07:59:12;;;;;;;31.98;17.67;;;3.60;99.90;;;;;;5025977;28;20024;-59
2020/12/01 08:01:40;;;;;;;36.63;18.25;;;3.60;99.90;;;;;;5016464;28;20025;-58
2020/12/01 08:04:18;;;;;;;35.95;17.48;;;3.70;99.90;;;;;;5020972;28;20132;-58
2020/12/01 08:06:45;;;;;;;31.80;19.08;;;3.70;99.90;;;;;;5011554;28;20085;-59
2020/12/01 08:09:19;;;;;;;40.05;17.52;;;3.70;99.90;;;;;;5020518;28;20083;-58
2020/12/01 08:11:45;;;;;;;;;;;3.70;99.90;;;;;;5016619;28;20025;-58
2020/12/01 08:14:11;;;;;;;40.88;15.82;;;3.70;99.90;;;;;;5011495;28;19993;-59
2020/12/01 08:16:37;;;;;;;39.30;17.92;;;3.70;99.90;;;;;;5018823;28;20128;-58
2020/12/01 08:19:04;;;;;;;35.63;15.57;;;3.70;99.90;;;;;;5015055;28;20761;-57
2020/12/01 08:21:35;;;;;;;34.83;18.48;;;3.80;99.90;;;;;;4993122;28;20041;-59
2020/12/01 08:24:05;;;;;;;45.33;19.33;;;3.80;99.90;;;;;;5021882;28;20072;-59
2020/12/01 08:26:33;;;;;;;42.30;17.20;;;3.80;99.90;;;;;;5027595;28;20044;-59
2020/12/01 08:29:19;;;;;;;41.10;18.35;;;3.80;99.90;;;;;;5026469;28;20116;-58
2020/12/01 08:32:03;;;;;;;33.55;16.85;;;3.80;99.90;;;;;;5013743;28;20042;-58
2020/12/01 08:34:49;;;;;;;37.00;17.55;;;3.80;99.90;;;;;;5017171;28;20687;-57
2020/12/01 08:37:54;;;;;;;40.88;16.63;;;3.80;99.90;;;;;;5014577;28;20021;-58
2020/12/01 08:40:45;;;;;;;38.63;16.70;;;3.90;99.90;;;;;;5010684;28;20045;-58
2020/12/01 08:43:26;;;;;;;56.90;18.67;;;3.90;99.90;;;;;;5014563;28;20099;-59
2020/12/01 08:45:53;;;;;;;84.38;18.70;;;3.90;99.90;;;;;;5016862;28;20026;-59
2020/12/01 08:48:29;;;;;;;46.38;18.15;;;4.00;99.90;;;;;;5014361;28;20105;-59
2020/12/01 08:51:04;;;;;;;88.70;19.83;;;4.00;99.90;;;;;;5015736;28;20097;-58
2020/12/01 08:53:31;;;;;;;43.40;17.95;;;4.00;99.90;;;;;;5014634;28;20492;-59
2020/12/01 08:55:58;;;;;;;49.40;19.08;;;3.90;99.90;;;;;;5019297;28;20449;-57
2020/12/01 08:58:27;;;;;;;56.95;19.33;;;3.90;99.90;;;;;;5015805;28;20029;-59
2020/12/01 09:01:07;;;;;;;69.28;19.98;;;3.90;99.90;;;;;;5017546;28;20030;-59
2020/12/01 09:03:35;;;;;;;69.35;19.52;;;4.00;99.90;;;;;;5018315;28;20061;-59
2020/12/01 09:06:01;;;;;;;59.00;19.77;;;4.00;99.90;;;;;;5013100;28;20395;-58
2020/12/01 09:22:31;;;;;;;96.03;19.67;;;4.40;99.90;;;;;;5000577;28;20056;-59
2020/12/01 09:25:23;;;;;;;84.18;18.10;;;4.40;99.90;;;;;;5021477;28;20490;-57
2020/12/01 09:27:51;;;;;;;57.47;17.40;;;4.50;99.90;;;;;;5011332;28;20062;-58
2020/12/01 09:30:27;;;;;;;181.85;22.90;;;4.60;99.90;;;;;;5020535;28;20056;-58
2020/12/01 09:32:53;;;;;;;53.80;17.10;;;4.60;99.90;;;;;;5011727;28;20391;-58
2020/12/01 09:35:19;;;;;;;171.10;21.08;;;4.70;99.90;;;;;;5028124;28;20120;-58
2020/12/01 09:37:44;;;;;;;63.55;18.73;;;4.70;99.90;;;;;;5026603;28;20018;-58
2020/12/01 09:40:10;;;;;;;100.60;19.00;;;4.70;99.90;;;;;;5018412;28;20084;-58
2020/12/01 09:42:38;;;;;;;193.02;22.02;;;4.70;99.90;;;;;;5023098;28;20030;-59
2020/12/01 09:50:31;;;;;;;84.43;19.77;;;4.60;99.90;;;;;;5014958;28;20057;-58
2020/12/01 09:53:20;;;;;;;160.88;23.23;;;4.60;99.90;;;;;;5019791;28;20403;-58
2020/12/01 09:56:06;;;;;;;70.80;17.92;;;4.60;99.90;;;;;;5021409;28;20439;-58
2020/12/01 10:12:41;;;;;;;129.85;21.08;;;5.00;99.90;;;;;;5013631;28;20026;-58
2020/12/01 10:36:20;;;;;;;228.82;26.05;;;5.20;99.90;;;;;;5013649;28;20072;-58
2020/12/01 10:38:46;;;;;;;151.85;20.67;;;5.20;99.90;;;;;;5040591;28;20107;-58
2020/12/01 10:41:11;;;;;;;248.65;23.70;;;5.20;99.90;;;;;;5032634;28;20532;-57
2020/12/01 10:43:37;;;;;;;153.10;23.10;;;5.20;99.90;;;;;;5016375;28;20037;-58
2020/12/01 10:46:03;;;;;;;135.10;21.92;;;5.10;99.90;;;;;;5042233;28;20037;-59
2020/12/01 10:48:28;;;;;;;273.63;26.25;;;5.00;99.90;;;;;;5035233;28;20047;-59
2020/12/01 10:50:54;;;;;;;96.55;21.52;;;5.00;99.90;;;;;;5036297;28;20031;-60
2020/12/01 10:53:19;;;;;;;147.48;22.08;;;5.10;99.90;;;;;;5036677;28;20442;-60
2020/12/01 10:55:45;;;;;;;183.85;25.00;;;5.20;99.90;;;;;;5036950;28;20056;-57
2020/12/01 10:58:10;;;;;;;167.40;26.38;;;5.20;99.90;;;;;;5035494;28;20315;-59
2020/12/01 11:00:36;;;;;;;325.08;27.83;;;5.20;99.90;;;;;;5036013;28;20398;-59
2020/12/01 11:03:01;;;;;;;345.17;27.92;;;5.30;99.90;;;;;;5041159;28;20045;-56
2020/12/01 11:05:29;;;;;;;155.48;23.60;;;5.20;99.90;;;;;;5037500;28;20053;-58
2020/12/01 11:07:55;;;;;;;188.18;24.63;;;5.20;99.90;;;;;;5036886;28;20056;-59
2020/12/01 11:10:21;;;;;;;296.38;27.90;;;5.30;99.90;;;;;;5037978;28;20063;-59
2020/12/01 11:12:46;;;;;;;119.70;21.10;;;5.40;99.90;;;;;;5035121;28;20044;-58
2020/12/01 11:15:13;;;;;;;253.07;26.52;;;5.50;99.90;;;;;;5040256;28;20037;-59
2020/12/01 11:17:38;;;;;;;147.95;22.13;;;5.50;99.90;;;;;;5030582;28;20029;-59
2020/12/01 11:20:05;;;;;;;85.15;20.25;;;5.60;99.90;;;;;;5038544;28;20295;-59
2020/12/01 11:22:31;;;;;;;144.70;23.33;;;5.70;99.90;;;;;;5014725;28;20051;-59
2020/12/01 11:24:56;;;;;;;100.00;20.35;;;5.80;99.90;;;;;;5034325;28;20032;-59
2020/12/01 11:27:22;;;;;;;115.00;18.98;;;5.80;99.90;;;;;;5035458;28;20018;-54
2020/12/01 11:29:48;;;;;;;108.63;20.58;;;5.70;99.90;;;;;;5039668;28;20027;-56
2020/12/01 11:32:13;;;;;;;159.95;22.17;;;5.60;99.90;;;;;;5034823;28;20040;-60
2020/12/01 11:34:39;;;;;;;143.50;22.38;;;5.60;99.90;;;;;;5011316;28;20460;-57
2020/12/01 11:37:05;;;;;;;205.70;23.35;;;5.60;99.90;;;;;;5038423;28;20025;-57
2020/12/01 11:39:30;;;;;;;148.10;20.85;;;5.60;99.90;;;;;;5033205;28;20143;-59
2020/12/01 11:41:56;;;;;;;62.67;17.65;;;5.60;99.90;;;;;;5036550;28;20115;-59
2020/12/01 11:44:22;;;;;;;66.53;17.90;;;5.70;99.90;;;;;;5036782;28;20036;-59
2020/12/01 11:46:47;;;;;;;106.47;16.83;;;5.70;99.90;;;;;;5034989;28;20036;-60
2020/12/01 11:49:14;;;;;;;71.03;16.95;;;5.80;99.90;;;;;;5037697;28;20053;-57
2020/12/01 11:51:41;;;;;;;75.18;16.55;;;5.80;99.90;;;;;;5044411;28;20021;-60
2020/12/01 11:54:08;;;;;;;77.65;17.48;;;5.70;99.90;;;;;;5031468;28;20038;-56
2020/12/01 11:56:34;;;;;;;90.03;17.35;;;5.80;99.90;;;;;;5036412;28;20096;-58
2020/12/01 11:59:00;;;;;;;88.88;16.02;;;5.80;99.90;;;;;;5033678;28;20639;-55
2020/12/01 12:01:26;;;;;;;78.03;16.10;;;5.80;99.90;;;;;;5036567;28;20029;-57
2020/12/01 12:03:51;;;;;;;34.05;15.60;;;5.70;99.90;;;;;;5037820;28;20036;-59
2020/12/01 12:06:17;;;;;;;43.45;15.50;;;5.70;99.90;;;;;;5034469;28;20039;-59
2020/12/01 12:08:43;;;;;;;27.67;13.68;;;5.80;99.90;;;;;;5036728;28;20025;-58
2020/12/01 12:11:09;;;;;;;84.72;16.05;;;5.70;99.90;;;;;;5033015;28;20037;-58
2020/12/01 12:13:35;;;;;;;170.20;17.52;;;5.70;99.90;;;;;;5036225;28;20075;-58
2020/12/01 12:16:00;;;;;;;182.88;20.75;;;5.70;99.90;;;;;;5038469;28;20025;-58
2020/12/01 12:18:26;;;;;;;62.00;14.93;;;5.70;99.90;;;;;;5034377;28;20037;-56
2020/12/01 12:20:51;;;;;;;39.25;13.10;;;5.60;99.90;;;;;;5039878;28;20029;-58
2020/12/01 12:23:17;;;;;;;335.83;24.23;;;5.60;99.90;;;;;;5010150;28;20134;-56
2020/12/01 12:25:43;;;;;;;59.83;14.68;;;5.70;99.90;;;;;;5041385;28;20476;-57
2020/12/01 12:28:09;;;;;;;96.65;15.32;;;5.60;99.90;;;;;;5032686;28;20033;-57
2020/12/01 12:30:34;;;;;;;43.03;13.55;;;5.70;99.90;;;;;;5040033;28;20037;-58
2020/12/01 12:33:00;;;;;;;43.25;13.45;;;5.70;99.90;;;;;;5035116;28;20029;-58
2020/12/01 12:35:25;;;;;;;33.83;12.70;;;5.80;99.90;;;;;;5035656;28;20029;-58
2020/12/01 12:37:51;;;;;;;38.75;12.52;;;5.80;99.90;;;;;;5036455;28;20024;-58
2020/12/01 12:40:18;;;;;;;26.33;12.48;;;5.80;99.90;;;;;;5040148;28;20451;-58
2020/12/01 12:42:43;;;;;;;21.58;11.52;;;5.80;99.90;;;;;;5038169;28;20059;-57
2020/12/01 12:45:10;;;;;;;26.90;11.88;;;5.80;99.90;;;;;;5036232;28;20065;-58
2020/12/01 12:47:35;;;;;;;20.05;10.98;;;5.80;99.90;;;;;;5032083;28;20112;-59
2020/12/01 12:50:01;;;;;;;20.90;9.95;;;5.80;99.90;;;;;;5038158;28;20538;-59
2020/12/01 12:52:27;;;;;;;19.80;10.68;;;5.70;99.90;;;;;;5036839;28;20399;-61
2020/12/01 12:54:52;;;;;;;20.02;10.65;;;5.70;99.90;;;;;;5040078;28;20021;-61
2020/12/01 12:57:18;;;;;;;25.77;12.07;;;5.70;99.90;;;;;;5033884;28;20099;-60
2020/12/01 12:59:43;;;;;;;23.80;11.55;;;5.70;99.90;;;;;;5042650;28;20029;-61
2020/12/01 13:02:09;;;;;;;25.70;12.10;;;5.70;99.90;;;;;;5038904;28;20049;-60
2020/12/01 13:04:35;;;;;;;25.30;12.55;;;5.70;99.90;;;;;;5044642;28;20071;-62
2020/12/01 13:07:00;;;;;;;22.02;12.65;;;5.80;99.90;;;;;;5035433;28;20038;-62
2020/12/01 13:09:26;;;;;;;19.90;11.18;;;5.80;99.90;;;;;;5040674;28;20398;-62
2020/12/01 13:11:52;;;;;;;23.55;11.23;;;5.90;99.90;;;;;;5040845;28;20042;-61
2020/12/01 13:14:18;;;;;;;21.88;13.57;;;5.90;99.90;;;;;;5041555;28;20120;-60
2020/12/01 13:16:48;;;;;;;20.55;10.25;;;5.90;99.90;;;;;;5044903;28;20413;-61
2020/12/01 13:19:14;;;;;;;24.40;11.13;;;5.90;99.90;;;;;;5037832;28;20499;-61
2020/12/01 13:21:40;;;;;;;24.02;10.82;;;5.90;99.90;;;;;;5039253;28;20068;-62
2020/12/01 13:24:06;;;;;;;18.98;9.90;;;5.90;99.90;;;;;;5015685;28;20502;-61
2020/12/01 13:26:31;;;;;;;21.95;9.98;;;5.90;99.90;;;;;;5039834;28;20037;-62
2020/12/01 13:28:57;;;;;;;22.40;10.75;;;5.80;99.90;;;;;;5037187;28;20083;-60
2020/12/01 13:31:22;;;;;;;24.20;11.02;;;5.90;99.90;;;;;;5036499;28;20037;-60
2020/12/01 13:33:48;;;;;;;20.15;9.98;;;5.90;99.90;;;;;;5034988;28;20037;-59
2020/12/01 13:36:13;;;;;;;15.88;9.43;;;5.90;99.90;;;;;;5002228;28;20387;-61
2020/12/01 13:38:39;;;;;;;16.98;10.35;;;5.90;99.90;;;;;;5036111;28;20031;-60
2020/12/01 13:41:05;;;;;;;15.35;9.48;;;5.90;99.90;;;;;;5033769;28;20114;-61
2020/12/01 13:43:30;;;;;;;20.85;11.20;;;5.90;99.90;;;;;;5035221;28;20087;-60
2020/12/01 13:45:56;;;;;;;19.77;10.23;;;5.90;99.90;;;;;;5036817;28;20057;-62
2020/12/01 13:48:21;;;;;;;16.98;10.40;;;5.90;99.90;;;;;;5040350;28;20754;-62